sensor_id;sensor_type;location;lat;lon;timestamp;P1;durP1;ratioP1;P2;durP2;ratioP2
20988;SDS011;10653;47.052;15.410;2023-01-01T00:00:43;260.90;;;188.93;;
20988;SDS011;10653;47.052;15.410;2023-01-01T00:03:09;254.55;;;178.38;;
20988;SDS011;10653;47.052;15.410;2023-01-01T00:05:38;268.88;;;202.15;;
20988;SDS011;10653;47.052;15.410;2023-01-01T00:08:04;260.25;;;183.50;;
20988;SDS011;10653;47.052;15.410;2023-01-01T00:10:31;264.90;;;196.93;;
20988;SDS011;10653;47.052;15.410;2023-01-01T00:12:57;281.52;;;199.82;;
20988;SDS011;10653;47.052;15.410;2023-01-01T00:15:24;276.70;;;200.90;;
20988;SDS011;10653;47.052;15.410;2023-01-01T00:17:51;309.90;;;236.02;;
20988;SDS011;10653;47.052;15.410;2023-01-01T00:20:17;299.95;;;229.85;;
20988;SDS011;10653;47.052;15.410;2023-01-01T00:22:43;292.67;;;213.18;;
20988;SDS011;10653;47.052;15.410;2023-01-01T00:25:09;280.38;;;202.82;;
20988;SDS011;10653;47.052;15.410;2023-01-01T00:27:42;294.75;;;219.18;;
20988;SDS011;10653;47.052;15.410;2023-01-01T00:30:08;296.33;;;223.65;;
20988;SDS011;10653;47.052;15.410;2023-01-01T00:32:35;318.55;;;243.10;;
20988;SDS011;10653;47.052;15.410;2023-01-01T00:35:01;328.58;;;246.52;;
20988;SDS011;10653;47.052;15.410;2023-01-01T00:37:27;316.35;;;244.65;;
20988;SDS011;10653;47.052;15.410;2023-01-01T00:39:53;320.00;;;241.68;;
20988;SDS011;10653;47.052;15.410;2023-01-01T00:42:19;259.90;;;206.05;;
20988;SDS011;10653;47.052;15.410;2023-01-01T00:44:45;273.27;;;201.52;;
20988;SDS011;10653;47.052;15.410;2023-01-01T00:47:11;292.40;;;209.88;;
20988;SDS011;10653;47.052;15.410;2023-01-01T00:49:37;307.88;;;240.30;;
20988;SDS011;10653;47.052;15.410;2023-01-01T00:52:03;280.90;;;207.20;;
20988;SDS011;10653;47.052;15.410;2023-01-01T00:54:29;234.10;;;172.70;;
20988;SDS011;10653;47.052;15.410;2023-01-01T00:56:55;258.15;;;193.32;;
20988;SDS011;10653;47.052;15.410;2023-01-01T00:59:22;281.58;;;209.85;;
20988;SDS011;10653;47.052;15.410;2023-01-01T01:01:48;291.98;;;222.88;;
20988;SDS011;10653;47.052;15.410;2023-01-01T01:04:14;261.63;;;201.02;;
20988;SDS011;10653;47.052;15.410;2023-01-01T01:06:40;264.02;;;201.02;;
20988;SDS011;10653;47.052;15.410;2023-01-01T01:09:06;288.23;;;221.95;;
20988;SDS011;10653;47.052;15.410;2023-01-01T01:11:32;271.77;;;195.90;;
20988;SDS011;10653;47.052;15.410;2023-01-01T01:13:58;303.58;;;207.43;;
20988;SDS011;10653;47.052;15.410;2023-01-01T01:18:51;292.50;;;207.53;;
20988;SDS011;10653;47.052;15.410;2023-01-01T01:21:18;272.77;;;202.55;;
20988;SDS011;10653;47.052;15.410;2023-01-01T01:23:44;297.05;;;198.70;;
20988;SDS011;10653;47.052;15.410;2023-01-01T01:26:15;254.40;;;192.20;;
20988;SDS011;10653;47.052;15.410;2023-01-01T01:28:42;268.38;;;200.02;;
20988;SDS011;10653;47.052;15.410;2023-01-01T01:31:08;279.55;;;189.48;;
20988;SDS011;10653;47.052;15.410;2023-01-01T01:33:34;308.33;;;209.27;;
20988;SDS011;10653;47.052;15.410;2023-01-01T01:36:01;316.50;;;226.05;;
20988;SDS011;10653;47.052;15.410;2023-01-01T01:38:27;269.52;;;206.55;;
20988;SDS011;10653;47.052;15.410;2023-01-01T01:40:53;310.73;;;225.00;;
20988;SDS011;10653;47.052;15.410;2023-01-01T01:43:20;269.25;;;204.63;;
20988;SDS011;10653;47.052;15.410;2023-01-01T01:45:47;276.40;;;209.02;;
20988;SDS011;10653;47.052;15.410;2023-01-01T01:48:13;252.43;;;190.43;;
20988;SDS011;10653;47.052;15.410;2023-01-01T01:50:40;253.63;;;191.60;;
20988;SDS011;10653;47.052;15.410;2023-01-01T01:53:10;249.85;;;193.82;;
20988;SDS011;10653;47.052;15.410;2023-01-01T01:55:43;247.15;;;178.80;;
20988;SDS011;10653;47.052;15.410;2023-01-01T01:58:10;255.73;;;200.05;;
20988;SDS011;10653;47.052;15.410;2023-01-01T02:00:37;257.23;;;191.13;;
20988;SDS011;10653;47.052;15.410;2023-01-01T02:03:04;305.50;;;224.38;;
20988;SDS011;10653;47.052;15.410;2023-01-01T02:05:31;267.33;;;201.15;;
20988;SDS011;10653;47.052;15.410;2023-01-01T02:07:58;272.00;;;206.85;;
20988;SDS011;10653;47.052;15.410;2023-01-01T02:10:25;282.90;;;205.77;;
20988;SDS011;10653;47.052;15.410;2023-01-01T02:12:52;267.02;;;207.63;;
20988;SDS011;10653;47.052;15.410;2023-01-01T02:15:18;284.00;;;212.55;;
20988;SDS011;10653;47.052;15.410;2023-01-01T02:30:42;267.52;;;200.18;;
20988;SDS011;10653;47.052;15.410;2023-01-01T02:33:11;277.85;;;208.35;;
20988;SDS011;10653;47.052;15.410;2023-01-01T02:35:43;273.08;;;215.25;;
20988;SDS011;10653;47.052;15.410;2023-01-01T02:40:40;268.20;;;195.00;;
20988;SDS011;10653;47.052;15.410;2023-01-01T02:43:07;273.02;;;207.15;;
20988;SDS011;10653;47.052;15.410;2023-01-01T02:45:33;251.65;;;182.55;;
20988;SDS011;10653;47.052;15.410;2023-01-01T02:48:06;245.63;;;184.45;;
20988;SDS011;10653;47.052;15.410;2023-01-01T02:50:32;242.98;;;183.57;;
20988;SDS011;10653;47.052;15.410;2023-01-01T02:53:01;249.00;;;181.82;;
20988;SDS011;10653;47.052;15.410;2023-01-01T02:58:20;244.63;;;180.55;;
20988;SDS011;10653;47.052;15.410;2023-01-01T03:01:16;241.82;;;191.63;;
20988;SDS011;10653;47.052;15.410;2023-01-01T03:06:35;250.80;;;196.02;;
20988;SDS011;10653;47.052;15.410;2023-01-01T03:11:31;214.55;;;160.32;;
20988;SDS011;10653;47.052;15.410;2023-01-01T03:14:01;238.95;;;176.38;;
20988;SDS011;10653;47.052;15.410;2023-01-01T03:16:38;220.82;;;161.15;;
20988;SDS011;10653;47.052;15.410;2023-01-01T03:19:11;216.70;;;157.77;;
20988;SDS011;10653;47.052;15.410;2023-01-01T03:24:04;213.07;;;153.73;;
20988;SDS011;10653;47.052;15.410;2023-01-01T03:26:31;206.07;;;152.38;;
20988;SDS011;10653;47.052;15.410;2023-01-01T03:28:59;210.55;;;155.57;;
20988;SDS011;10653;47.052;15.410;2023-01-01T03:31:26;190.30;;;139.13;;
20988;SDS011;10653;47.052;15.410;2023-01-01T03:33:55;202.05;;;152.30;;
20988;SDS011;10653;47.052;15.410;2023-01-01T03:36:26;163.38;;;126.78;;
20988;SDS011;10653;47.052;15.410;2023-01-01T03:38:54;226.43;;;165.77;;
20988;SDS011;10653;47.052;15.410;2023-01-01T03:43:52;198.13;;;150.60;;
20988;SDS011;10653;47.052;15.410;2023-01-01T03:46:23;192.50;;;149.02;;
20988;SDS011;10653;47.052;15.410;2023-01-01T03:48:51;200.70;;;148.23;;
20988;SDS011;10653;47.052;15.410;2023-01-01T03:51:28;214.50;;;156.75;;
20988;SDS011;10653;47.052;15.410;2023-01-01T03:53:58;206.63;;;148.52;;
20988;SDS011;10653;47.052;15.410;2023-01-01T03:56:38;208.30;;;157.48;;
20988;SDS011;10653;47.052;15.410;2023-01-01T04:01:39;203.80;;;153.93;;
20988;SDS011;10653;47.052;15.410;2023-01-01T04:04:05;216.38;;;162.43;;
20988;SDS011;10653;47.052;15.410;2023-01-01T04:06:32;207.82;;;150.48;;
20988;SDS011;10653;47.052;15.410;2023-01-01T04:08:59;200.15;;;149.10;;
20988;SDS011;10653;47.052;15.410;2023-01-01T04:11:27;219.32;;;161.32;;
20988;SDS011;10653;47.052;15.410;2023-01-01T04:14:13;193.02;;;150.43;;
20988;SDS011;10653;47.052;15.410;2023-01-01T04:16:50;192.70;;;138.60;;
20988;SDS011;10653;47.052;15.410;2023-01-01T04:19:16;212.73;;;153.18;;
20988;SDS011;10653;47.052;15.410;2023-01-01T04:21:42;193.13;;;137.38;;
20988;SDS011;10653;47.052;15.410;2023-01-01T04:24:08;187.93;;;135.40;;
20988;SDS011;10653;47.052;15.410;2023-01-01T04:26:34;184.85;;;135.45;;
20988;SDS011;10653;47.052;15.410;2023-01-01T04:29:00;187.07;;;133.93;;
20988;SDS011;10653;47.052;15.410;2023-01-01T04:31:26;167.45;;;117.35;;
20988;SDS011;10653;47.052;15.410;2023-01-01T04:33:52;190.90;;;131.48;;
20988;SDS011;10653;47.052;15.410;2023-01-01T04:36:18;191.82;;;143.98;;
20988;SDS011;10653;47.052;15.410;2023-01-01T04:38:44;202.00;;;145.05;;
20988;SDS011;10653;47.052;15.410;2023-01-01T04:41:10;188.30;;;136.15;;
20988;SDS011;10653;47.052;15.410;2023-01-01T04:43:36;176.00;;;136.63;;
20988;SDS011;10653;47.052;15.410;2023-01-01T04:46:02;176.95;;;135.07;;
20988;SDS011;10653;47.052;15.410;2023-01-01T04:48:30;184.73;;;137.23;;
20988;SDS011;10653;47.052;15.410;2023-01-01T04:51:00;197.10;;;144.85;;
20988;SDS011;10653;47.052;15.410;2023-01-01T04:53:28;229.07;;;165.73;;
20988;SDS011;10653;47.052;15.410;2023-01-01T04:55:54;217.48;;;162.55;;
20988;SDS011;10653;47.052;15.410;2023-01-01T04:58:20;225.20;;;167.15;;
20988;SDS011;10653;47.052;15.410;2023-01-01T05:00:49;221.85;;;158.75;;
20988;SDS011;10653;47.052;15.410;2023-01-01T05:03:16;220.57;;;159.93;;
20988;SDS011;10653;47.052;15.410;2023-01-01T05:05:42;214.80;;;158.88;;
20988;SDS011;10653;47.052;15.410;2023-01-01T05:08:08;209.65;;;155.68;;
20988;SDS011;10653;47.052;15.410;2023-01-01T05:10:34;193.43;;;147.82;;
20988;SDS011;10653;47.052;15.410;2023-01-01T05:13:00;201.80;;;141.68;;
20988;SDS011;10653;47.052;15.410;2023-01-01T05:15:26;201.57;;;147.73;;
20988;SDS011;10653;47.052;15.410;2023-01-01T05:17:53;200.35;;;147.90;;
20988;SDS011;10653;47.052;15.410;2023-01-01T05:20:19;199.95;;;144.32;;
20988;SDS011;10653;47.052;15.410;2023-01-01T05:22:45;187.25;;;139.65;;
20988;SDS011;10653;47.052;15.410;2023-01-01T05:25:11;184.10;;;138.18;;
20988;SDS011;10653;47.052;15.410;2023-01-01T05:27:37;173.13;;;130.75;;
20988;SDS011;10653;47.052;15.410;2023-01-01T05:30:03;164.63;;;123.25;;
20988;SDS011;10653;47.052;15.410;2023-01-01T05:32:29;165.65;;;123.55;;
20988;SDS011;10653;47.052;15.410;2023-01-01T05:34:55;161.50;;;113.33;;
20988;SDS011;10653;47.052;15.410;2023-01-01T05:37:21;175.00;;;130.98;;
20988;SDS011;10653;47.052;15.410;2023-01-01T05:39:47;171.13;;;123.32;;
20988;SDS011;10653;47.052;15.410;2023-01-01T05:42:13;167.82;;;122.55;;
20988;SDS011;10653;47.052;15.410;2023-01-01T05:44:40;171.20;;;130.82;;
20988;SDS011;10653;47.052;15.410;2023-01-01T05:47:06;194.25;;;140.75;;
20988;SDS011;10653;47.052;15.410;2023-01-01T05:49:32;188.00;;;128.25;;
20988;SDS011;10653;47.052;15.410;2023-01-01T05:52:00;181.65;;;123.53;;
20988;SDS011;10653;47.052;15.410;2023-01-01T05:54:26;177.57;;;124.32;;
20988;SDS011;10653;47.052;15.410;2023-01-01T05:56:52;169.15;;;120.63;;
20988;SDS011;10653;47.052;15.410;2023-01-01T05:59:18;165.48;;;115.63;;
20988;SDS011;10653;47.052;15.410;2023-01-01T06:01:44;167.75;;;127.25;;
20988;SDS011;10653;47.052;15.410;2023-01-01T06:04:10;164.65;;;126.18;;
20988;SDS011;10653;47.052;15.410;2023-01-01T06:06:36;169.80;;;126.57;;
20988;SDS011;10653;47.052;15.410;2023-01-01T06:09:03;167.60;;;123.05;;
20988;SDS011;10653;47.052;15.410;2023-01-01T06:11:30;158.88;;;114.70;;
20988;SDS011;10653;47.052;15.410;2023-01-01T06:13:57;162.45;;;123.90;;
20988;SDS011;10653;47.052;15.410;2023-01-01T06:16:24;177.25;;;125.18;;
20988;SDS011;10653;47.052;15.410;2023-01-01T06:18:50;177.80;;;127.88;;
20988;SDS011;10653;47.052;15.410;2023-01-01T06:21:17;180.57;;;118.18;;
20988;SDS011;10653;47.052;15.410;2023-01-01T06:23:44;178.38;;;135.38;;
20988;SDS011;10653;47.052;15.410;2023-01-01T06:26:11;173.95;;;132.43;;
20988;SDS011;10653;47.052;15.410;2023-01-01T06:28:37;167.15;;;128.10;;
20988;SDS011;10653;47.052;15.410;2023-01-01T06:31:04;118.53;;;79.97;;
20988;SDS011;10653;47.052;15.410;2023-01-01T06:33:31;166.05;;;119.78;;
20988;SDS011;10653;47.052;15.410;2023-01-01T06:35:57;152.40;;;116.20;;
20988;SDS011;10653;47.052;15.410;2023-01-01T06:38:24;149.02;;;112.85;;
20988;SDS011;10653;47.052;15.410;2023-01-01T06:40:59;159.65;;;121.07;;
20988;SDS011;10653;47.052;15.410;2023-01-01T06:43:26;155.32;;;122.85;;
20988;SDS011;10653;47.052;15.410;2023-01-01T06:45:59;170.63;;;124.05;;
20988;SDS011;10653;47.052;15.410;2023-01-01T06:48:26;159.52;;;124.78;;
20988;SDS011;10653;47.052;15.410;2023-01-01T06:50:52;162.00;;;125.38;;
20988;SDS011;10653;47.052;15.410;2023-01-01T06:53:18;161.40;;;120.10;;
20988;SDS011;10653;47.052;15.410;2023-01-01T06:55:47;151.60;;;117.28;;
20988;SDS011;10653;47.052;15.410;2023-01-01T06:58:13;157.98;;;116.78;;
20988;SDS011;10653;47.052;15.410;2023-01-01T07:00:39;154.48;;;111.32;;
20988;SDS011;10653;47.052;15.410;2023-01-01T07:03:08;152.53;;;114.23;;
20988;SDS011;10653;47.052;15.410;2023-01-01T07:05:34;155.80;;;117.45;;
20988;SDS011;10653;47.052;15.410;2023-01-01T07:08:00;155.68;;;117.25;;
20988;SDS011;10653;47.052;15.410;2023-01-01T07:10:26;147.85;;;112.15;;
20988;SDS011;10653;47.052;15.410;2023-01-01T07:12:52;148.32;;;104.82;;
20988;SDS011;10653;47.052;15.410;2023-01-01T07:15:18;153.05;;;116.22;;
20988;SDS011;10653;47.052;15.410;2023-01-01T07:17:44;146.02;;;109.72;;
20988;SDS011;10653;47.052;15.410;2023-01-01T07:20:11;150.40;;;109.40;;
20988;SDS011;10653;47.052;15.410;2023-01-01T07:22:37;145.75;;;109.57;;
20988;SDS011;10653;47.052;15.410;2023-01-01T07:25:04;143.27;;;107.82;;
20988;SDS011;10653;47.052;15.410;2023-01-01T07:27:31;140.55;;;106.20;;
20988;SDS011;10653;47.052;15.410;2023-01-01T07:29:57;146.07;;;109.73;;
20988;SDS011;10653;47.052;15.410;2023-01-01T07:32:23;145.95;;;110.97;;
20988;SDS011;10653;47.052;15.410;2023-01-01T07:34:49;147.85;;;110.70;;
20988;SDS011;10653;47.052;15.410;2023-01-01T07:37:15;148.75;;;107.15;;
20988;SDS011;10653;47.052;15.410;2023-01-01T07:39:41;139.75;;;105.13;;
20988;SDS011;10653;47.052;15.410;2023-01-01T07:42:07;138.40;;;97.90;;
20988;SDS011;10653;47.052;15.410;2023-01-01T07:44:33;136.18;;;99.25;;
20988;SDS011;10653;47.052;15.410;2023-01-01T07:47:19;125.90;;;90.22;;
20988;SDS011;10653;47.052;15.410;2023-01-01T07:49:45;131.75;;;90.68;;
20988;SDS011;10653;47.052;15.410;2023-01-01T07:52:11;140.73;;;96.45;;
20988;SDS011;10653;47.052;15.410;2023-01-01T07:54:37;130.45;;;95.63;;
20988;SDS011;10653;47.052;15.410;2023-01-01T07:57:03;124.35;;;92.40;;
20988;SDS011;10653;47.052;15.410;2023-01-01T07:59:29;128.73;;;96.82;;
20988;SDS011;10653;47.052;15.410;2023-01-01T08:01:55;131.63;;;93.30;;
20988;SDS011;10653;47.052;15.410;2023-01-01T08:04:21;131.45;;;88.40;;
20988;SDS011;10653;47.052;15.410;2023-01-01T08:06:48;119.60;;;83.18;;
20988;SDS011;10653;47.052;15.410;2023-01-01T08:09:14;122.95;;;85.93;;
20988;SDS011;10653;47.052;15.410;2023-01-01T08:11:40;119.18;;;83.50;;
20988;SDS011;10653;47.052;15.410;2023-01-01T08:14:06;114.15;;;84.22;;
20988;SDS011;10653;47.052;15.410;2023-01-01T08:16:32;118.20;;;82.57;;
20988;SDS011;10653;47.052;15.410;2023-01-01T08:18:58;120.00;;;87.35;;
20988;SDS011;10653;47.052;15.410;2023-01-01T08:21:24;112.38;;;83.28;;
20988;SDS011;10653;47.052;15.410;2023-01-01T08:23:50;115.28;;;81.22;;
20988;SDS011;10653;47.052;15.410;2023-01-01T08:26:17;115.20;;;79.53;;
20988;SDS011;10653;47.052;15.410;2023-01-01T08:28:43;120.63;;;79.53;;
20988;SDS011;10653;47.052;15.410;2023-01-01T08:31:09;111.70;;;80.00;;
20988;SDS011;10653;47.052;15.410;2023-01-01T08:33:35;112.95;;;77.53;;
20988;SDS011;10653;47.052;15.410;2023-01-01T08:36:01;121.95;;;82.65;;
20988;SDS011;10653;47.052;15.410;2023-01-01T08:38:27;116.03;;;79.53;;
20988;SDS011;10653;47.052;15.410;2023-01-01T08:40:53;121.03;;;85.70;;
20988;SDS011;10653;47.052;15.410;2023-01-01T08:43:19;114.97;;;80.60;;
20988;SDS011;10653;47.052;15.410;2023-01-01T08:45:45;108.43;;;76.18;;
20988;SDS011;10653;47.052;15.410;2023-01-01T08:48:11;116.43;;;74.05;;
20988;SDS011;10653;47.052;15.410;2023-01-01T08:50:37;107.80;;;72.47;;
20988;SDS011;10653;47.052;15.410;2023-01-01T08:53:03;105.80;;;66.35;;
20988;SDS011;10653;47.052;15.410;2023-01-01T08:55:29;98.28;;;69.53;;
20988;SDS011;10653;47.052;15.410;2023-01-01T08:57:55;89.10;;;63.50;;
20988;SDS011;10653;47.052;15.410;2023-01-01T09:00:21;91.97;;;63.80;;
20988;SDS011;10653;47.052;15.410;2023-01-01T09:02:48;95.33;;;60.33;;
20988;SDS011;10653;47.052;15.410;2023-01-01T09:05:14;84.45;;;57.00;;
20988;SDS011;10653;47.052;15.410;2023-01-01T09:07:40;95.10;;;60.00;;
20988;SDS011;10653;47.052;15.410;2023-01-01T09:10:06;80.40;;;58.97;;
20988;SDS011;10653;47.052;15.410;2023-01-01T09:12:32;78.47;;;52.67;;
20988;SDS011;10653;47.052;15.410;2023-01-01T09:14:58;75.47;;;53.17;;
20988;SDS011;10653;47.052;15.410;2023-01-01T09:17:24;68.03;;;49.33;;
20988;SDS011;10653;47.052;15.410;2023-01-01T09:19:50;64.27;;;44.67;;
20988;SDS011;10653;47.052;15.410;2023-01-01T09:22:16;52.33;;;39.40;;
20988;SDS011;10653;47.052;15.410;2023-01-01T09:24:42;59.13;;;42.90;;
20988;SDS011;10653;47.052;15.410;2023-01-01T09:27:08;58.40;;;40.13;;
20988;SDS011;10653;47.052;15.410;2023-01-01T09:29:34;56.93;;;39.00;;
20988;SDS011;10653;47.052;15.410;2023-01-01T09:32:00;54.20;;;38.77;;
20988;SDS011;10653;47.052;15.410;2023-01-01T09:34:26;61.47;;;40.20;;
20988;SDS011;10653;47.052;15.410;2023-01-01T09:36:52;48.50;;;33.73;;
20988;SDS011;10653;47.052;15.410;2023-01-01T09:39:18;43.77;;;33.13;;
20988;SDS011;10653;47.052;15.410;2023-01-01T09:42:01;38.23;;;26.47;;
20988;SDS011;10653;47.052;15.410;2023-01-01T09:49:49;36.30;;;27.17;;
20988;SDS011;10653;47.052;15.410;2023-01-01T09:52:15;40.20;;;28.87;;
20988;SDS011;10653;47.052;15.410;2023-01-01T09:54:43;41.40;;;30.10;;
20988;SDS011;10653;47.052;15.410;2023-01-01T09:57:12;32.30;;;23.57;;
20988;SDS011;10653;47.052;15.410;2023-01-01T09:59:38;31.33;;;21.00;;
20988;SDS011;10653;47.052;15.410;2023-01-01T10:05:08;30.17;;;21.80;;
20988;SDS011;10653;47.052;15.410;2023-01-01T10:11:04;31.67;;;22.47;;
20988;SDS011;10653;47.052;15.410;2023-01-01T10:13:09;37.37;;;22.40;;
20988;SDS011;10653;47.052;15.410;2023-01-01T10:15:43;27.13;;;20.97;;
20988;SDS011;10653;47.052;15.410;2023-01-01T10:18:16;26.53;;;20.63;;
20988;SDS011;10653;47.052;15.410;2023-01-01T10:20:45;25.13;;;19.17;;
20988;SDS011;10653;47.052;15.410;2023-01-01T10:23:18;24.10;;;18.70;;
20988;SDS011;10653;47.052;15.410;2023-01-01T10:25:45;27.43;;;18.13;;
20988;SDS011;10653;47.052;15.410;2023-01-01T10:28:18;23.00;;;16.30;;
20988;SDS011;10653;47.052;15.410;2023-01-01T10:30:46;21.10;;;16.27;;
20988;SDS011;10653;47.052;15.410;2023-01-01T10:33:12;25.60;;;16.70;;
20988;SDS011;10653;47.052;15.410;2023-01-01T10:35:41;22.93;;;19.17;;
20988;SDS011;10653;47.052;15.410;2023-01-01T10:38:09;28.73;;;20.20;;
20988;SDS011;10653;47.052;15.410;2023-01-01T10:40:38;26.87;;;19.80;;
20988;SDS011;10653;47.052;15.410;2023-01-01T10:43:05;20.63;;;14.87;;
20988;SDS011;10653;47.052;15.410;2023-01-01T10:45:32;22.47;;;16.73;;
20988;SDS011;10653;47.052;15.410;2023-01-01T10:50:41;20.40;;;16.27;;
20988;SDS011;10653;47.052;15.410;2023-01-01T10:53:24;23.10;;;17.40;;
20988;SDS011;10653;47.052;15.410;2023-01-01T10:55:56;23.93;;;17.00;;
20988;SDS011;10653;47.052;15.410;2023-01-01T10:58:31;21.97;;;17.63;;
20988;SDS011;10653;47.052;15.410;2023-01-01T11:01:00;22.47;;;17.03;;
20988;SDS011;10653;47.052;15.410;2023-01-01T11:03:26;19.23;;;15.47;;
20988;SDS011;10653;47.052;15.410;2023-01-01T11:08:24;22.67;;;15.50;;
20988;SDS011;10653;47.052;15.410;2023-01-01T11:10:51;17.50;;;14.87;;
20988;SDS011;10653;47.052;15.410;2023-01-01T11:13:19;16.30;;;14.40;;
20988;SDS011;10653;47.052;15.410;2023-01-01T11:15:46;19.50;;;14.87;;
20988;SDS011;10653;47.052;15.410;2023-01-01T11:18:13;16.70;;;14.70;;
20988;SDS011;10653;47.052;15.410;2023-01-01T11:20:39;16.70;;;12.17;;
20988;SDS011;10653;47.052;15.410;2023-01-01T11:28:35;16.53;;;14.60;;
20988;SDS011;10653;47.052;15.410;2023-01-01T11:31:14;14.83;;;13.23;;
20988;SDS011;10653;47.052;15.410;2023-01-01T11:33:42;14.93;;;13.17;;
20988;SDS011;10653;47.052;15.410;2023-01-01T11:36:09;15.80;;;13.00;;
20988;SDS011;10653;47.052;15.410;2023-01-01T11:38:35;14.87;;;13.27;;
20988;SDS011;10653;47.052;15.410;2023-01-01T11:41:04;16.43;;;14.20;;
20988;SDS011;10653;47.052;15.410;2023-01-01T11:43:42;15.80;;;14.20;;
20988;SDS011;10653;47.052;15.410;2023-01-01T11:46:10;18.67;;;15.40;;
20988;SDS011;10653;47.052;15.410;2023-01-01T11:48:40;17.83;;;14.93;;
20988;SDS011;10653;47.052;15.410;2023-01-01T11:51:07;20.33;;;14.50;;
20988;SDS011;10653;47.052;15.410;2023-01-01T11:53:39;17.20;;;15.50;;
20988;SDS011;10653;47.052;15.410;2023-01-01T11:58:40;17.40;;;15.20;;
20988;SDS011;10653;47.052;15.410;2023-01-01T12:03:46;15.00;;;13.40;;
20988;SDS011;10653;47.052;15.410;2023-01-01T12:06:25;16.27;;;14.67;;
20988;SDS011;10653;47.052;15.410;2023-01-01T12:08:55;16.20;;;14.43;;
20988;SDS011;10653;47.052;15.410;2023-01-01T12:13:53;19.03;;;14.13;;
20988;SDS011;10653;47.052;15.410;2023-01-01T12:16:54;18.03;;;13.90;;
20988;SDS011;10653;47.052;15.410;2023-01-01T12:19:21;14.70;;;12.40;;
20988;SDS011;10653;47.052;15.410;2023-01-01T12:21:48;17.20;;;12.30;;
20988;SDS011;10653;47.052;15.410;2023-01-01T12:24:15;21.30;;;13.50;;
20988;SDS011;10653;47.052;15.410;2023-01-01T12:42:54;19.10;;;16.30;;
20988;SDS011;10653;47.052;15.410;2023-01-01T12:45:43;17.97;;;15.40;;
20988;SDS011;10653;47.052;15.410;2023-01-01T12:58:35;16.27;;;14.57;;
20988;SDS011;10653;47.052;15.410;2023-01-01T13:01:13;14.83;;;13.23;;
20988;SDS011;10653;47.052;15.410;2023-01-01T13:06:09;15.20;;;13.60;;
20988;SDS011;10653;47.052;15.410;2023-01-01T13:08:36;17.70;;;13.20;;
20988;SDS011;10653;47.052;15.410;2023-01-01T13:11:03;16.90;;;14.20;;
20988;SDS011;10653;47.052;15.410;2023-01-01T13:13:30;16.67;;;13.90;;
20988;SDS011;10653;47.052;15.410;2023-01-01T13:15:56;14.77;;;12.90;;
20988;SDS011;10653;47.052;15.410;2023-01-01T13:18:31;15.10;;;13.33;;
20988;SDS011;10653;47.052;15.410;2023-01-01T13:20:59;14.87;;;13.10;;
20988;SDS011;10653;47.052;15.410;2023-01-01T13:36:48;15.50;;;13.23;;
20988;SDS011;10653;47.052;15.410;2023-01-01T13:42:00;21.53;;;16.27;;
20988;SDS011;10653;47.052;15.410;2023-01-01T13:44:26;15.70;;;14.10;;
20988;SDS011;10653;47.052;15.410;2023-01-01T14:00:04;17.23;;;14.77;;
20988;SDS011;10653;47.052;15.410;2023-01-01T14:02:45;18.67;;;14.27;;
20988;SDS011;10653;47.052;15.410;2023-01-01T14:07:48;19.03;;;13.50;;
20988;SDS011;10653;47.052;15.410;2023-01-01T14:12:41;17.63;;;15.73;;
20988;SDS011;10653;47.052;15.410;2023-01-01T14:17:52;22.53;;;16.13;;
20988;SDS011;10653;47.052;15.410;2023-01-01T14:20:21;20.37;;;13.93;;
20988;SDS011;10653;47.052;15.410;2023-01-01T14:22:47;20.90;;;14.77;;
20988;SDS011;10653;47.052;15.410;2023-01-01T14:25:19;18.63;;;14.97;;
20988;SDS011;10653;47.052;15.410;2023-01-01T14:27:49;18.57;;;15.40;;
20988;SDS011;10653;47.052;15.410;2023-01-01T14:30:17;19.87;;;15.27;;
20988;SDS011;10653;47.052;15.410;2023-01-01T14:32:43;17.30;;;14.20;;
20988;SDS011;10653;47.052;15.410;2023-01-01T14:35:14;17.10;;;13.47;;
20988;SDS011;10653;47.052;15.410;2023-01-01T14:37:40;18.60;;;14.90;;
20988;SDS011;10653;47.052;15.410;2023-01-01T14:40:08;18.20;;;14.47;;
20988;SDS011;10653;47.052;15.410;2023-01-01T14:42:38;21.40;;;13.77;;
20988;SDS011;10653;47.052;15.410;2023-01-01T14:45:05;21.93;;;15.37;;
20988;SDS011;10653;47.052;15.410;2023-01-01T14:47:32;15.73;;;14.00;;
20988;SDS011;10653;47.052;15.410;2023-01-01T14:50:01;18.20;;;14.57;;
20988;SDS011;10653;47.052;15.410;2023-01-01T14:52:27;19.17;;;14.40;;
20988;SDS011;10653;47.052;15.410;2023-01-01T14:54:55;18.47;;;14.70;;
20988;SDS011;10653;47.052;15.410;2023-01-01T14:57:24;18.33;;;14.43;;
20988;SDS011;10653;47.052;15.410;2023-01-01T14:59:50;21.30;;;16.60;;
20988;SDS011;10653;47.052;15.410;2023-01-01T15:02:21;19.30;;;15.53;;
20988;SDS011;10653;47.052;15.410;2023-01-01T15:04:48;20.30;;;13.70;;
20988;SDS011;10653;47.052;15.410;2023-01-01T15:09:46;19.20;;;15.23;;
20988;SDS011;10653;47.052;15.410;2023-01-01T15:12:13;20.07;;;16.60;;
20988;SDS011;10653;47.052;15.410;2023-01-01T15:14:42;18.83;;;14.77;;
20988;SDS011;10653;47.052;15.410;2023-01-01T15:17:13;20.33;;;15.63;;
20988;SDS011;10653;47.052;15.410;2023-01-01T15:19:40;22.87;;;15.70;;
20988;SDS011;10653;47.052;15.410;2023-01-01T15:22:26;21.87;;;16.93;;
20988;SDS011;10653;47.052;15.410;2023-01-01T15:24:52;24.60;;;15.43;;
20988;SDS011;10653;47.052;15.410;2023-01-01T15:27:31;26.20;;;18.60;;
20988;SDS011;10653;47.052;15.410;2023-01-01T15:29:58;22.93;;;18.77;;
20988;SDS011;10653;47.052;15.410;2023-01-01T15:32:28;23.00;;;18.00;;
20988;SDS011;10653;47.052;15.410;2023-01-01T15:34:56;23.90;;;18.00;;
20988;SDS011;10653;47.052;15.410;2023-01-01T15:37:32;25.17;;;18.47;;
20988;SDS011;10653;47.052;15.410;2023-01-01T15:40:42;25.33;;;18.23;;
20988;SDS011;10653;47.052;15.410;2023-01-01T15:47:48;20.80;;;16.37;;
20988;SDS011;10653;47.052;15.410;2023-01-01T15:52:47;21.50;;;16.90;;
20988;SDS011;10653;47.052;15.410;2023-01-01T15:55:14;24.13;;;19.13;;
20988;SDS011;10653;47.052;15.410;2023-01-01T15:57:43;25.93;;;20.77;;
20988;SDS011;10653;47.052;15.410;2023-01-01T16:00:19;27.63;;;21.40;;
20988;SDS011;10653;47.052;15.410;2023-01-01T16:02:46;29.30;;;21.73;;
20988;SDS011;10653;47.052;15.410;2023-01-01T16:05:15;26.70;;;20.30;;
20988;SDS011;10653;47.052;15.410;2023-01-01T16:07:42;32.27;;;20.97;;
20988;SDS011;10653;47.052;15.410;2023-01-01T16:10:13;28.50;;;23.03;;
20988;SDS011;10653;47.052;15.410;2023-01-01T16:12:39;26.53;;;20.37;;
20988;SDS011;10653;47.052;15.410;2023-01-01T16:15:05;25.30;;;20.30;;
20988;SDS011;10653;47.052;15.410;2023-01-01T16:17:32;27.00;;;21.90;;
20988;SDS011;10653;47.052;15.410;2023-01-01T16:19:58;28.50;;;21.97;;